Flight Track Log - Related Links

Times and Time Zones

All times are in EDT time to prevent confusion due to time zone crossing. See the ASA731 flight status page for this flight to view local times or setup timezone preferences in your user account.

Time Position Orientation Groundspeed Altitude Reporting Facility
EDT Latitude Longitude Course Direction KTS MPH feet Rate Location/Type
Wed 12:47:06 AM 47.4219 -122.3111 181° South 178 205 1,300  Level Seattle Center
Wed 12:47:31 AM 47.4022 -122.3117 181° South 184 212 1,800 1,674 Climbing Seattle Center
Wed 12:48:32 AM 47.3347 -122.3194 184° South 229 264 3,700 1,835 Climbing Seattle Center
Wed 12:49:32 AM 47.3100 -122.4175 250° West 269 310 5,500 1,785 Climbing Seattle Center
Wed 12:50:33 AM 47.3386 -122.5181 293° West 269 310 7,300 2,033 Climbing Seattle Center
Wed 12:51:33 AM 47.3989 -122.5964 319° Northwest 288 331 9,600 1,835 Climbing Seattle Center
Wed 12:52:34 AM 47.4631 -122.6808 318° Northwest 306 352 11,000 1,525 Climbing Seattle Center
Wed 12:53:35 AM 47.5386 -122.7783 319° Northwest 356 410 12,700 1,934 Climbing Seattle Center
Wed 12:54:35 AM 47.6197 -122.8828 319° Northwest 379 436 14,900 2,281 Climbing Seattle Center
Wed 12:55:36 AM 47.6886 -123.0072 309° West 393 452 17,300 2,262 Climbing Seattle Center
Wed 12:56:37 AM 47.7781 -123.1047 324° Northwest 398 458 19,500 2,083 Climbing Seattle Center
Wed 12:57:37 AM 47.8681 -123.2003 325° Northwest 401 461 21,500 1,884 Climbing Seattle Center
Wed 12:58:38 AM 47.9606 -123.2978 325° Northwest 407 468 23,300 1,587 Climbing Seattle Center
Wed 12:59:38 AM 48.0500 -123.3908 325° Northwest 412 474 24,700 1,388 Climbing Seattle Center
Wed 01:00:39 AM 48.1472 -123.4933 325° Northwest 423 487 26,100 1,327 Climbing Seattle Center
Wed 01:03:06 AM 48.3833 -123.7500 324° Northwest 440 506 29,300 1,246 Climbing Vancouver Center
Wed 01:04:06 AM 48.4833 -123.8833 319° Northwest 450 518 30,400 1,250 Climbing Vancouver Center
Wed 01:05:06 AM 48.5833 -123.9833 327° Northwest 440 506 31,800 1,250 Climbing Vancouver Center
Wed 01:06:06 AM 48.6833 -124.0833 327° Northwest 440 506 32,900 1,000 Climbing Vancouver Center
Wed 01:07:06 AM 48.7667 -124.2000 317° Northwest 440 506 33,800 550 Climbing Vancouver Center
Wed 01:08:06 AM 48.8833 -124.3000 331° Northwest 440 506 34,000 100 Climbing Vancouver Center
Wed 01:09:06 AM 48.9833 -124.4167 323° Northwest 440 506 34,000  Level Vancouver Center
Wed 01:10:06 AM 49.0833 -124.5333 323° Northwest 440 506 34,000  Level Vancouver Center
Wed 01:11:06 AM 49.1833 -124.6500 323° Northwest 440 506 34,000  Level Vancouver Center
Wed 01:12:06 AM 49.2667 -124.7500 322° Northwest 440 506 34,000  Level Vancouver Center
Wed 01:13:06 AM 49.3667 -124.8833 319° Northwest 430 495 34,000  Level Vancouver Center
Wed 01:14:06 AM 49.4667 -124.9833 327° Northwest 430 495 34,000  Level Vancouver Center
Wed 01:15:06 AM 49.5667 -125.0833 327° Northwest 430 495 34,000  Level Vancouver Center
Wed 01:16:06 AM 49.6667 -125.2000 323° Northwest 430 495 34,000  Level Vancouver Center
Wed 01:17:06 AM 49.7667 -125.3000 327° Northwest 430 495 34,000  Level Vancouver Center
Wed 01:18:06 AM 49.8500 -125.4333 314° West 430 495 34,000  Level Vancouver Center
Wed 01:19:06 AM 49.9500 -125.5333 327° Northwest 420 483 34,000  Level Vancouver Center
Wed 01:20:06 AM 50.0500 -125.6500 323° Northwest 430 495 34,000  Level Vancouver Center
Wed 01:21:06 AM 50.1167 -125.7500 316° Northwest 430 495 34,000  Level Vancouver Center
Wed 01:22:06 AM 50.2167 -125.8667 323° Northwest 430 495 34,000  Level Vancouver Center
Wed 01:23:06 AM 50.3167 -125.9667 327° Northwest 430 495 34,000  Level Vancouver Center
Wed 01:24:06 AM 50.4167 -126.0833 323° Northwest 430 495 34,000  Level Vancouver Center
Wed 01:25:06 AM 50.5167 -126.1833 328° Northwest 430 495 34,000  Level Vancouver Center
Wed 01:26:06 AM 50.6000 -126.3167 315° West 420 483 34,000  Level Vancouver Center
Wed 01:27:06 AM 50.7000 -126.4333 324° Northwest 420 483 34,000  Level Vancouver Center
Wed 01:28:06 AM 50.8000 -126.5500 324° Northwest 420 483 34,000  Level Vancouver Center
Wed 01:29:06 AM 50.8833 -126.6500 323° Northwest 420 483 34,000  Level Vancouver Center
Wed 01:30:06 AM 50.9667 -126.7667 319° Northwest 420 483 34,000  Level Vancouver Center
Wed 01:31:06 AM 51.0667 -126.8833 324° Northwest 420 483 34,000  Level Vancouver Center
Wed 01:32:06 AM 51.1667 -127.0000 324° Northwest 420 483 34,000  Level Vancouver Center
Wed 01:33:06 AM 51.2500 -127.1000 323° Northwest 420 483 34,000  Level Vancouver Center
Wed 01:34:06 AM 51.3500 -127.2500 317° Northwest 420 483 34,000  Level Vancouver Center
Wed 01:35:06 AM 51.4333 -127.3667 319° Northwest 430 495 34,000  Level Vancouver Center
Wed 01:36:06 AM 51.5333 -127.4833 324° Northwest 420 483 34,000  Level Vancouver Center
Wed 01:37:06 AM 51.6167 -127.5833 323° Northwest 420 483 34,000  Level Vancouver Center
Wed 01:38:06 AM 51.7167 -127.7000 324° Northwest 420 483 34,000  Level Vancouver Center
Wed 01:39:06 AM 51.8167 -127.8167 324° Northwest 420 483 34,000  Level Vancouver Center
Wed 01:40:06 AM 51.8833 -127.9333 313° West 430 495 34,000  Level Vancouver Center
Wed 01:41:06 AM 51.9833 -128.0500 324° Northwest 430 495 34,000  Level Vancouver Center
Wed 01:42:06 AM 52.0833 -128.1667 324° Northwest 430 495 34,000  Level Vancouver Center
Wed 01:43:06 AM 52.1833 -128.3167 317° Northwest 430 495 34,000  Level Vancouver Center
Wed 01:44:06 AM 52.2667 -128.4333 319° Northwest 430 495 34,000  Level Vancouver Center
Wed 01:45:06 AM 52.3667 -128.5500 325° Northwest 430 495 34,000  Level Vancouver Center
Wed 01:46:06 AM 52.4500 -128.6833 316° Northwest 430 495 34,000  Level Vancouver Center
Wed 01:47:06 AM 52.5333 -128.8000 320° Northwest 430 495 34,000  Level Vancouver Center
Wed 01:48:06 AM 52.6333 -128.9167 325° Northwest 430 495 34,000  Level Vancouver Center
Wed 01:49:06 AM 52.7333 -129.0667 318° Northwest 430 495 34,000  Level Vancouver Center
Wed 01:50:06 AM 52.8167 -129.1833 320° Northwest 430 495 34,000  Level Vancouver Center
Wed 01:51:06 AM 52.9000 -129.3000 320° Northwest 430 495 34,000  Level Vancouver Center
Wed 01:52:06 AM 53.0000 -129.4333 321° Northwest 430 495 34,000  Level Vancouver Center
Wed 01:53:06 AM 53.1000 -129.5500 325° Northwest 430 495 34,000  Level Vancouver Center
Wed 01:54:06 AM 53.1833 -129.6833 316° Northwest 430 495 34,000  Level Vancouver Center
Wed 01:55:06 AM 53.2833 -129.8333 318° Northwest 420 483 34,000  Level Vancouver Center
Wed 01:56:06 AM 53.3500 -129.9500 314° West 420 483 34,000  Level Vancouver Center
Wed 01:57:06 AM 53.4500 -130.0833 322° Northwest 420 483 34,000  Level Vancouver Center
Wed 01:58:06 AM 53.5333 -130.2000 320° Northwest 420 483 34,000  Level Vancouver Center
Wed 01:59:06 AM 53.6167 -130.3333 317° Northwest 420 483 34,000  Level Vancouver Center
Wed 02:00:06 AM 53.7167 -130.4500 325° Northwest 420 483 34,000  Level Vancouver Center
Wed 02:01:06 AM 53.8167 -130.5833 322° Northwest 420 483 34,000  Level Vancouver Center
Wed 02:02:06 AM 53.8833 -130.7167 310° West 420 483 34,000  Level Vancouver Center
Wed 02:03:06 AM 53.9833 -130.8667 319° Northwest 420 483 34,000  Level Vancouver Center
Wed 02:04:06 AM 54.0667 -131.0000 317° Northwest 420 483 34,000  Level Vancouver Center
Wed 02:05:06 AM 54.1667 -131.1333 322° Northwest 420 483 34,000  Level Vancouver Center
Wed 02:06:06 AM 54.2333 -131.2500 314° West 420 483 34,000  Level Vancouver Center
Wed 02:07:06 AM 54.3167 -131.3833 317° Northwest 420 483 34,000  Level Vancouver Center
Wed 02:08:06 AM 54.4000 -131.5167 317° Northwest 420 483 34,000  Level Vancouver Center
Wed 02:09:06 AM 54.5000 -131.6500 322° Northwest 420 483 34,000  Level Vancouver Center
Wed 02:10:06 AM 54.5833 -131.7833 317° Northwest 420 483 34,000  Level Vancouver Center
Wed 02:11:06 AM 54.6667 -131.9167 317° Northwest 420 483 34,000  Level Vancouver Center
Wed 02:12:06 AM 54.7500 -132.0500 317° Northwest 420 483 34,000  Level Vancouver Center
Wed 02:13:06 AM 54.8500 -132.1833 323° Northwest 420 483 34,000  Level Vancouver Center
Wed 02:14:14 AM 54.9333 -132.2833 325° Northwest 420 483 34,000  Level Anchorage Center
Wed 02:15:14 AM 55.0333 -132.4333 319° Northwest 410 472 34,000  Level Anchorage Center
Wed 02:16:14 AM 55.1000 -132.5500 315° West 410 472 34,000  Level Anchorage Center
Wed 02:17:14 AM 55.2000 -132.7000 319° Northwest 410 472 34,000  Level Anchorage Center
Wed 02:18:14 AM 55.2833 -132.8333 318° Northwest 420 483 34,000  Level Anchorage Center
Wed 02:19:14 AM 55.3500 -132.9500 315° West 410 472 34,000  Level Anchorage Center
Wed 02:20:14 AM 55.4333 -133.1000 314° West 420 483 34,000  Level Anchorage Center
Wed 02:21:14 AM 55.5167 -133.2333 318° Northwest 420 483 34,000  Level Anchorage Center
Wed 02:22:15 AM 55.6000 -133.3667 318° Northwest 420 483 34,000  Level Anchorage Center
Wed 02:23:15 AM 55.7000 -133.5167 320° Northwest 420 483 34,000  Level Anchorage Center
Wed 02:24:15 AM 55.7833 -133.6667 315° West 430 495 34,000  Level Anchorage Center
Wed 02:25:15 AM 55.8667 -133.8000 318° Northwest 430 495 34,000  Level Anchorage Center
Wed 02:26:15 AM 55.9500 -133.9500 315° West 430 495 34,000  Level Anchorage Center
Wed 02:27:15 AM 56.0333 -134.1000 315° West 430 495 34,000  Level Anchorage Center
Wed 02:28:15 AM 56.1167 -134.2500 315° West 440 506 34,000  Level Anchorage Center
Wed 02:29:15 AM 56.2167 -134.4000 320° Northwest 430 495 34,000  Level Anchorage Center
Wed 02:30:16 AM 56.3000 -134.5500 315° West 430 495 34,000  Level Anchorage Center
Wed 02:31:16 AM 56.3833 -134.7000 315° West 440 506 34,000  Level Anchorage Center
Wed 02:32:16 AM 56.4667 -134.8500 315° West 430 495 34,000  Level Anchorage Center
Wed 02:33:15 AM 56.5500 -135.0000 315° West 430 495 34,000  Level Anchorage Center
Wed 02:34:16 AM 56.6333 -135.1667 312° West 430 495 34,000  Level Anchorage Center
Wed 02:35:16 AM 56.7333 -135.3167 321° Northwest 430 495 34,000  Level Anchorage Center
Wed 02:36:16 AM 56.8000 -135.4500 312° West 440 506 34,000  Level Anchorage Center
Wed 02:37:16 AM 56.8833 -135.6167 313° West 420 483 34,000  Level Anchorage Center
Wed 02:38:16 AM 56.9667 -135.7833 313° West 420 483 34,000  Level Anchorage Center
Wed 02:39:16 AM 57.0333 -135.9667 304° West 430 495 34,000  Level Anchorage Center
Wed 02:40:16 AM 57.1000 -136.1333 306° West 430 495 34,000  Level Anchorage Center
Wed 02:41:16 AM 57.1833 -136.3167 310° West 430 495 34,000  Level Anchorage Center
Wed 02:42:17 AM 57.2500 -136.4833 307° West 430 495 34,000  Level Anchorage Center
Wed 02:42:32 AM 57.2833 -136.6333 292° West 430 495 34,000  Level Vancouver Center
Wed 02:43:32 AM 57.3500 -136.8167 304° West 430 495 34,000  Level Vancouver Center
Wed 02:44:17 AM 57.4000 -136.8333 350° North 430 495 34,000  Level Anchorage Center
Wed 02:45:17 AM 57.4667 -137.0167 304° West 430 495 34,000  Level Anchorage Center
Wed 02:46:17 AM 57.5333 -137.1833 307° West 420 483 34,000  Level Anchorage Center
Wed 02:47:17 AM 57.6167 -137.3667 310° West 420 483 34,000  Level Anchorage Center
Wed 02:48:17 AM 57.6833 -137.5333 307° West 430 495 34,000  Level Anchorage Center
Wed 02:49:17 AM 57.7500 -137.7167 304° West 420 483 34,000  Level Anchorage Center
Wed 02:50:18 AM 57.8167 -137.9000 304° West 430 495 34,000  Level Anchorage Center
Wed 02:51:18 AM 57.9000 -138.0667 313° West 420 483 34,000  Level Anchorage Center
Wed 02:52:18 AM 57.9667 -138.2500 304° West 420 483 34,000  Level Anchorage Center
Wed 02:53:18 AM 58.0333 -138.4333 305° West 420 483 34,000  Level Anchorage Center
Wed 02:54:18 AM 58.1000 -138.6167 305° West 420 483 34,000  Level Anchorage Center
Wed 02:55:18 AM 58.1667 -138.7833 307° West 410 472 34,000  Level Anchorage Center
Wed 02:56:18 AM 58.2333 -138.9667 305° West 420 483 34,000  Level Anchorage Center
Wed 02:57:18 AM 58.3000 -139.1500 305° West 410 472 34,000  Level Anchorage Center
Wed 02:58:18 AM 58.3667 -139.3333 305° West 410 472 34,000  Level Anchorage Center
Wed 02:59:18 AM 58.4333 -139.5167 305° West 420 483 34,000  Level Anchorage Center
Wed 03:00:18 AM 58.5000 -139.7000 305° West 410 472 34,000  Level Anchorage Center
Wed 03:01:19 AM 58.5667 -139.8833 305° West 420 483 34,000  Level Anchorage Center
Wed 03:02:19 AM 58.6333 -140.0667 305° West 420 483 34,000  Level Anchorage Center
Wed 03:03:19 AM 58.7000 -140.2500 305° West 420 483 34,000  Level Anchorage Center
Wed 03:04:19 AM 58.7667 -140.4333 305° West 410 472 34,000  Level Anchorage Center
Wed 03:05:19 AM 58.8333 -140.6167 305° West 410 472 34,000  Level Anchorage Center
Wed 03:06:19 AM 58.8833 -140.8167 296° West 410 472 34,000  Level Anchorage Center
Wed 03:07:19 AM 58.9500 -141.0000 305° West 410 472 34,000  Level Anchorage Center
Wed 03:08:19 AM 59.0000 -141.1833 298° West 410 472 34,000  Level Anchorage Center
Wed 03:09:20 AM 59.0667 -141.3833 303° West 410 472 34,000  Level Anchorage Center
Wed 03:10:20 AM 59.1167 -141.5667 298° West 400 460 34,000  Level Anchorage Center
Wed 03:11:20 AM 59.1667 -141.7667 296° West 410 472 34,000  Level Anchorage Center
Wed 03:12:20 AM 59.2333 -141.9500 305° West 400 460 34,000  Level Anchorage Center
Wed 03:13:20 AM 59.2833 -142.1500 296° West 410 472 34,000  Level Anchorage Center
Wed 03:14:20 AM 59.3333 -142.3500 296° West 400 460 34,000  Level Anchorage Center
Wed 03:15:20 AM 59.3833 -142.5500 296° West 410 472 34,000  Level Anchorage Center
Wed 03:16:20 AM 59.4333 -142.7500 296° West 410 472 34,000  Level Anchorage Center
Wed 03:17:21 AM 59.5000 -142.9500 303° West 410 472 34,000  Level Anchorage Center
Wed 03:18:21 AM 59.5500 -143.1667 295° West 420 483 34,000  Level Anchorage Center
Wed 03:19:21 AM 59.6000 -143.3667 296° West 400 460 34,000  Level Anchorage Center
Wed 03:20:21 AM 59.6500 -143.5667 296° West 410 472 34,000  Level Anchorage Center
Wed 03:21:21 AM 59.7000 -143.7667 296° West 410 472 34,000  Level Anchorage Center
Wed 03:22:21 AM 59.7500 -143.9667 296° West 400 460 34,000  Level Anchorage Center
Wed 03:23:21 AM 59.8000 -144.1667 296° West 410 472 34,000  Level Anchorage Center
Wed 03:24:21 AM 59.8500 -144.3833 295° West 400 460 34,000  Level Anchorage Center
Wed 03:25:21 AM 59.9000 -144.5833 297° West 410 472 34,000  Level Anchorage Center
Wed 03:26:21 AM 59.9500 -144.7833 297° West 410 472 34,000  Level Anchorage Center
Wed 03:27:22 AM 60.0000 -145.0000 295° West 410 472 34,000  Level Anchorage Center
Wed 03:28:22 AM 60.0333 -145.2000 289° West 420 483 34,000  Level Anchorage Center
Wed 03:29:22 AM 60.0833 -145.4167 295° West 420 483 34,000  Level Anchorage Center
Wed 03:30:22 AM 60.1333 -145.6333 295° West 420 483 34,000  Level Anchorage Center
Wed 03:31:22 AM 60.1833 -145.8500 295° West 420 483 34,000  Level Anchorage Center
Wed 03:32:22 AM 60.2333 -146.0667 295° West 420 483 34,000  Level Anchorage Center
Wed 03:33:22 AM 60.2833 -146.2667 297° West 410 472 34,000  Level Anchorage Center
Wed 03:34:23 AM 60.3333 -146.4833 295° West 410 472 34,000  Level Anchorage Center
Wed 03:35:23 AM 60.3667 -146.7000 287° West 410 472 34,000  Level Anchorage Center
Wed 03:36:23 AM 60.4167 -146.9000 297° West 410 472 34,000  Level Anchorage Center
Wed 03:37:23 AM 60.4667 -147.1167 295° West 410 472 34,000  Level Anchorage Center
Wed 03:38:23 AM 60.5000 -147.3333 287° West 410 472 34,000 -800 Level Anchorage Center
Wed 03:39:23 AM 60.5500 -147.5667 294° West 410 472 32,400 -1,850 Descending Anchorage Center
Wed 03:40:23 AM 60.6000 -147.7667 297° West 390 449 30,300 -2,150 Descending Anchorage Center
Wed 03:41:23 AM 60.6333 -147.9667 289° West 370 426 28,100 -2,000 Descending Anchorage Center
Wed 03:42:23 AM 60.6667 -148.1333 292° West 350 403 26,300 -1,850 Descending Anchorage Center
Wed 03:43:23 AM 60.7000 -148.3167 290° West 350 403 24,400 -2,000 Descending Anchorage Center
Wed 03:44:23 AM 60.7500 -148.5167 297° West 340 391 22,300 -1,983 Descending Anchorage Center
Wed 03:45:24 AM 60.7833 -148.6833 292° West 320 368 20,400 -1,869 Descending Anchorage Center
Wed 03:47:00 AM 60.8454 -149.0299 290° West  Level FlightAware Approximate
Wed 03:54:00 AM 61.1741 -149.9982 65° Northeast  Level Estimated
Wed 03:55:00 AM 61.1741 -149.9982 65° Northeast  Level Estimated
Wed 03:56:00 AM 61.1741 -149.9982 65° Northeast  Level Estimated
Wed 03:57:00 AM 61.1741 -149.9982 65° Northeast  Level Estimated
Wed 03:58:00 AM 61.1741 -149.9982 65° Northeast  Level Estimated
Wed 03:59:00 AM 61.1741 -149.9982 65° Northeast  Level Estimated
Wed 04:00:00 AM 61.1741 -149.9982 65° Northeast  Level Estimated
Wed 04:01:00 AM 61.1741 -149.9982 65° Northeast  Level Estimated
Wed 04:02:00 AM 61.1741 -149.9982 65° Northeast  Level Estimated
Wed 04:03:00 AM 61.1741 -149.9982 65° Northeast  Level Estimated
Wed 04:04:00 AM 61.1741 -149.9982 65° Northeast  Level Estimated
Wed 04:05:00 AM 61.1741 -149.9982 65° Northeast  Level Estimated
Wed 04:06:00 AM 61.1741 -149.9982 65° Northeast  Level Estimated
Wed 04:07:00 AM 61.1741 -149.9982 65° Northeast  Level Estimated
Wed 04:08:00 AM 61.1741 -149.9982 65° Northeast  Level Estimated
Wed 04:09:00 AM 61.1741 -149.9982 65° Northeast  Level Estimated
Wed 04:10:00 AM 61.1741 -149.9982 65° Northeast  Level Estimated
Wed 04:11:00 AM 61.1741 -149.9982 65° Northeast  Level Estimated

Login

Don't have an account? Register now (free) for customized features, flight alerts, and more!